Terminal Aerodrome Forecast
Issued by NWS Shreveport, LA

Home | Current Version | Previous Version | Text Only | Print | Product List | Glossary On
Versions: 1 2 3 4 5 6 7 8 9 10 11 12 13 14 15 16 17 18 19
000
FTUS44 KSHV 261926 AAA
TAFGGG
TAF AMD
KGGG 261926Z 2619/2718 18010KT 5SM -RA BR VCTS BKN035CB
      TEMPO 2619/2623 VRB12G25KT 2SM -TSRA BR BKN015CB
     FM270000 15011KT P6SM BKN100
     FM270600 16009KT P6SM BKN015
     FM271600 16012KT P6SM VCTS BKN025CB=

USA.gov is the U.S. government's official web portal to all federal, state and local government web resources and services.